PWSweather.com
Personal Weather Stations
Station Observations
CWOPDW0920
Cole Harbour, Halifax, NS

Cole HarbourHalifax, NS

Lat: 44.679792, Lon: -63.465421

Elevation: 112

Station Type: WMR968

http://www.HRMWeather.com

High Low Average
Temperature 60.6°F15.9°C 41.5°F5.3°C 51.7°F10.9°C
Dew Point 52.3°F11.3°C 39.7°F4.3°C 47.1°F8.4°C
Winds 12.0 mph 19.3 kmh Calm Calm 5.0 mph SSE8.0 kmh SSE
Wind Gusts 16.0 mph25.7 kmh -- 8.0 mph12.9 kmh
Humidity 95% 74% 85%
Pressure 30.24 in1024.0 mb 30.12 in1020.0 mb -
Precipitation 0.00 in0.0 mm - -
Hour Temp Dew Point Humidity Winds Wind Gusts Pressure Precip Precip Rate Daily Precip Total
12:00 AM 44.8°F7.1°C 42.3°F5.7°C 91% Calm Calm -- 30.24 in1024.0 mb 0.00 in0.0 mm 0.00 in/hr0.0 mm/hr 0.00 in0.0 mm
02:00 AM 42.4°F5.8°C 40.6°F4.8°C 93% Calm Calm -- 30.24 in1024.0 mb 0.00 in0.0 mm 0.00 in/hr0.0 mm/hr 0.00 in0.0 mm
03:00 AM 41.5°F5.3°C 39.7°F4.3°C 93% Calm Calm -- 30.21 in1023.0 mb 0.00 in0.0 mm 0.00 in/hr0.0 mm/hr 0.00 in0.0 mm
04:00 AM 41.7°F5.4°C 40.1°F4.5°C 94% Calm Calm -- 30.21 in1023.0 mb 0.00 in0.0 mm 0.00 in/hr0.0 mm/hr 0.00 in0.0 mm
05:00 AM 42.3°F5.7°C 40.9°F4.9°C 95% Calm Calm -- 30.21 in1023.0 mb 0.00 in0.0 mm 0.00 in/hr0.0 mm/hr 0.00 in0.0 mm
06:00 AM 49.6°F9.8°C 47.3°F8.5°C 92% Calm Calm -- 30.21 in1023.0 mb 0.00 in0.0 mm 0.00 in/hr0.0 mm/hr 0.00 in0.0 mm
07:00 AM 55.6°F13.1°C 49.5°F9.7°C 80% 5.0 mph SE8.0 kmh SE 6.0 mph9.7 kmh 30.21 in1023.0 mb 0.00 in0.0 mm 0.00 in/hr0.0 mm/hr 0.00 in0.0 mm
08:00 AM 58.1°F14.5°C 50.2°F10.1°C 75% 5.0 mph ESE8.0 kmh ESE 9.0 mph14.5 kmh 30.24 in1024.0 mb 0.00 in0.0 mm 0.00 in/hr0.0 mm/hr 0.00 in0.0 mm
09:00 AM 59.9°F15.5°C 51.6°F10.9°C 74% 7.0 mph ESE11.3 kmh ESE 9.0 mph14.5 kmh 30.21 in1023.0 mb 0.00 in0.0 mm 0.00 in/hr0.0 mm/hr 0.00 in0.0 mm
10:00 AM 60.6°F15.9°C 52.3°F11.3°C 74% 6.0 mph ESE9.7 kmh ESE 14.0 mph22.5 kmh 30.21 in1023.0 mb 0.00 in0.0 mm 0.00 in/hr0.0 mm/hr 0.00 in0.0 mm
12:00 PM 56.2°F13.4°C 50.1°F10.1°C 80% 10.0 mph ESE16.1 kmh ESE 14.0 mph22.5 kmh 30.21 in1023.0 mb 0.00 in0.0 mm 0.00 in/hr0.0 mm/hr 0.00 in0.0 mm
01:00 PM 56.7°F13.7°C 50.3°F10.2°C 79% 8.0 mph SE12.9 kmh SE 13.0 mph20.9 kmh 30.18 in1022.0 mb 0.00 in0.0 mm 0.00 in/hr0.0 mm/hr 0.00 in0.0 mm
02:00 PM 56.0°F13.3°C 50.3°F10.2°C 81% 9.0 mph ESE14.5 kmh ESE 16.0 mph25.7 kmh 30.18 in1022.0 mb 0.00 in0.0 mm 0.00 in/hr0.0 mm/hr 0.00 in0.0 mm
03:00 PM 55.2°F12.9°C 49.1°F9.5°C 80% 12.0 mph ESE19.3 kmh ESE 14.0 mph22.5 kmh 30.15 in1021.0 mb 0.00 in0.0 mm 0.00 in/hr0.0 mm/hr 0.00 in0.0 mm
04:00 PM 55.5°F13.1°C 49.7°F9.8°C 81% 12.0 mph E19.3 kmh E 14.0 mph22.5 kmh 30.15 in1021.0 mb 0.00 in0.0 mm 0.00 in/hr0.0 mm/hr 0.00 in0.0 mm
05:00 PM 54.5°F12.5°C 50.1°F10.1°C 85% 9.0 mph ESE14.5 kmh ESE 13.0 mph20.9 kmh 30.12 in1020.0 mb 0.00 in0.0 mm 0.00 in/hr0.0 mm/hr 0.00 in0.0 mm
06:00 PM 50.2°F10.1°C 46.8°F8.2°C 88% 7.0 mph SE11.3 kmh SE 10.0 mph16.1 kmh 30.12 in1020.0 mb 0.00 in0.0 mm 0.00 in/hr0.0 mm/hr 0.00 in0.0 mm
07:00 PM 49.1°F9.5°C 46.0°F7.8°C 89% 6.0 mph SSE9.7 kmh SSE 9.0 mph14.5 kmh 30.12 in1020.0 mb 0.00 in0.0 mm 0.00 in/hr0.0 mm/hr 0.00 in0.0 mm
08:00 PM 47.1°F8.4°C 44.3°F6.8°C 90% 3.0 mph S4.8 kmh S 6.0 mph9.7 kmh 30.12 in1020.0 mb 0.00 in0.0 mm 0.00 in/hr0.0 mm/hr 0.00 in0.0 mm
09:00 PM 46.9°F8.3°C 44.4°F6.9°C 91% 5.0 mph SSE8.0 kmh SSE 9.0 mph14.5 kmh 30.12 in1020.0 mb 0.00 in0.0 mm 0.00 in/hr0.0 mm/hr 0.00 in0.0 mm
10:00 PM 46.6°F8.1°C 44.1°F6.7°C 91% 6.0 mph ESE9.7 kmh ESE 8.0 mph12.9 kmh 30.12 in1020.0 mb 0.00 in0.0 mm 0.00 in/hr0.0 mm/hr 0.00 in0.0 mm
11:00 PM 45.9°F7.7°C 43.7°F6.5°C 92% Calm Calm -- 30.12 in1020.0 mb 0.00 in0.0 mm 0.00 in/hr0.0 mm/hr 0.00 in0.0 mm